PWSweather.com
Personal Weather Stations
Station Observations
MENWDWX1
Menstrie, ScotlandGB

MenstrieScotlandGB

Lat: 56.148322, Lon: -3.85483

Elevation: 62

Station Type: Davis Vantage Pro 2

High Low Average
Temperature 55.3°F12.9°F 39.7°F4.3°F 49.6°F9.8°F
Dew Point 50.1°F10.1°F 36.6°F2.6°F 44.9°F7.2°F
Winds 10.4 mph SE16.7 mph SE Calm Calm 3.9 mph 6.3 mph
Wind Gusts 18.4 mph29.6 mph -- 6.0 mph9.7 mph
Humidity 90% 74% 84%
Pressure 29.97 in1014.90 in 29.91 in1012.90 in -
Precipitation 0.08 in2.00 in - -
Hour Temp Dew Point Humidity Winds Wind Gusts Pressure Precip Precip Rate Daily Precip Total
12:00 AM 43.0°F6.1°C 39.1°F3.9°C 86% 2.3 mph ENE3.7 kmh ENE 3.5 mph5.6 kmh 29.96 in1014.6 mb - 0.00 in0.0 mm 0.00 in0.0 mm
12:05 AM 42.7°F5.9°C 38.8°F3.8°C 86% 2.3 mph NE3.7 kmh NE 3.5 mph5.6 kmh 29.96 in1014.6 mb - 0.00 in0.0 mm 0.00 in0.0 mm
12:10 AM 42.4°F5.8°C 38.6°F3.7°C 86% 1.2 mph NE1.9 kmh NE 2.3 mph3.7 kmh 29.96 in1014.6 mb - 0.00 in0.0 mm 0.00 in0.0 mm
12:15 AM 42.3°F5.7°C 38.4°F3.6°C 86% 2.3 mph NE3.7 kmh NE 3.5 mph5.6 kmh 29.96 in1014.6 mb - 0.00 in0.0 mm 0.00 in0.0 mm
12:20 AM 42.1°F5.6°C 38.5°F3.6°C 87% 2.3 mph NE3.7 kmh NE 3.5 mph5.6 kmh 29.96 in1014.6 mb - 0.00 in0.0 mm 0.00 in0.0 mm
12:25 AM 42.0°F5.6°C 38.4°F3.6°C 87% 2.3 mph NE3.7 kmh NE 3.5 mph5.6 kmh 29.96 in1014.6 mb - 0.00 in0.0 mm 0.00 in0.0 mm
12:30 AM 42.0°F5.6°C 38.4°F3.6°C 87% 2.3 mph NE3.7 kmh NE 3.5 mph5.6 kmh 29.96 in1014.6 mb - 0.00 in0.0 mm 0.00 in0.0 mm
12:35 AM 41.8°F5.4°C 38.2°F3.4°C 87% 2.3 mph ENE3.7 kmh ENE 3.5 mph5.6 kmh 29.96 in1014.6 mb - 0.00 in0.0 mm 0.00 in0.0 mm
12:40 AM 41.7°F5.4°C 39.0°F3.9°C 90% 2.3 mph ENE3.7 kmh ENE 3.5 mph5.6 kmh 29.96 in1014.6 mb - 0.00 in0.0 mm 0.00 in0.0 mm
12:45 AM 41.6°F5.3°C 38.0°F3.3°C 87% 3.5 mph ENE5.6 kmh ENE 3.5 mph5.6 kmh 29.96 in1014.6 mb - 0.00 in0.0 mm 0.00 in0.0 mm
12:50 AM 41.5°F5.3°C 38.0°F3.3°C 87% 1.2 mph ENE1.9 kmh ENE 2.3 mph3.7 kmh 29.96 in1014.6 mb - 0.00 in0.0 mm 0.00 in0.0 mm
12:55 AM 41.4°F5.2°C 37.8°F3.2°C 87% 2.3 mph ENE3.7 kmh ENE 3.5 mph5.6 kmh 29.96 in1014.6 mb - 0.00 in0.0 mm 0.00 in0.0 mm
01:00 AM 41.5°F5.3°C 38.2°F3.4°C 88% 2.3 mph ENE3.7 kmh ENE 3.5 mph5.6 kmh 29.96 in1014.6 mb - 0.00 in0.0 mm 0.00 in0.0 mm
01:05 AM 41.7°F5.4°C 38.4°F3.6°C 88% 2.3 mph NE3.7 kmh NE 3.5 mph5.6 kmh 29.96 in1014.6 mb - 0.00 in0.0 mm 0.00 in0.0 mm
01:10 AM 41.8°F5.4°C 38.5°F3.6°C 88% 3.5 mph NE5.6 kmh NE 4.6 mph7.4 kmh 29.96 in1014.6 mb - 0.00 in0.0 mm 0.00 in0.0 mm
01:15 AM 41.8°F5.4°C 38.5°F3.6°C 88% 3.5 mph ENE5.6 kmh ENE 6.9 mph11.1 kmh 29.96 in1014.6 mb - 0.00 in0.0 mm 0.00 in0.0 mm
01:20 AM 41.9°F5.5°C 38.6°F3.7°C 88% 2.3 mph E3.7 kmh E 3.5 mph5.6 kmh 29.97 in1014.9 mb - 0.00 in0.0 mm 0.00 in0.0 mm
01:25 AM 42.0°F5.6°C 38.7°F3.7°C 88% 2.3 mph NE3.7 kmh NE 3.5 mph5.6 kmh 29.96 in1014.6 mb - 0.00 in0.0 mm 0.00 in0.0 mm
01:30 AM 41.9°F5.5°C 38.6°F3.7°C 88% Calm Calm 1.2 mph1.9 kmh 29.96 in1014.6 mb - 0.00 in0.0 mm 0.00 in0.0 mm
01:35 AM 42.0°F5.6°C 38.7°F3.7°C 88% 2.3 mph ENE3.7 kmh ENE 3.5 mph5.6 kmh 29.96 in1014.6 mb - 0.00 in0.0 mm 0.00 in0.0 mm
01:40 AM 41.9°F5.5°C 38.6°F3.7°C 88% 2.3 mph ENE3.7 kmh ENE 3.5 mph5.6 kmh 29.96 in1014.6 mb - 0.00 in0.0 mm 0.00 in0.0 mm
01:45 AM 41.6°F5.3°C 38.3°F3.5°C 88% 3.5 mph ENE5.6 kmh ENE 3.5 mph5.6 kmh 29.96 in1014.6 mb - 0.00 in0.0 mm 0.00 in0.0 mm
01:50 AM 41.4°F5.2°C 38.1°F3.4°C 88% 1.2 mph ENE1.9 kmh ENE 3.5 mph5.6 kmh 29.96 in1014.6 mb - 0.00 in0.0 mm 0.00 in0.0 mm
01:55 AM 41.0°F5.0°C 37.7°F3.2°C 88% 2.3 mph NE3.7 kmh NE 3.5 mph5.6 kmh 29.96 in1014.6 mb - 0.00 in0.0 mm 0.00 in0.0 mm
02:00 AM 40.8°F4.9°C 37.5°F3.1°C 88% 2.3 mph NE3.7 kmh NE 3.5 mph5.6 kmh 29.96 in1014.6 mb - 0.00 in0.0 mm 0.00 in0.0 mm
02:05 AM 40.6°F4.8°C 37.3°F2.9°C 88% 2.3 mph NE3.7 kmh NE 3.5 mph5.6 kmh 29.96 in1014.6 mb - 0.00 in0.0 mm 0.00 in0.0 mm
02:10 AM 40.4°F4.7°C 37.1°F2.8°C 88% 2.3 mph NE3.7 kmh NE 3.5 mph5.6 kmh 29.97 in1014.9 mb - 0.00 in0.0 mm 0.00 in0.0 mm
02:15 AM 40.4°F4.7°C 37.1°F2.8°C 88% 3.5 mph NE5.6 kmh NE 3.5 mph5.6 kmh 29.96 in1014.6 mb - 0.00 in0.0 mm 0.00 in0.0 mm
02:20 AM 40.4°F4.7°C 37.1°F2.8°C 88% 3.5 mph NE5.6 kmh NE 3.5 mph5.6 kmh 29.96 in1014.6 mb - 0.00 in0.0 mm 0.00 in0.0 mm
02:25 AM 40.4°F4.7°C 37.1°F2.8°C 88% 2.3 mph NE3.7 kmh NE 3.5 mph5.6 kmh 29.96 in1014.6 mb - 0.00 in0.0 mm 0.00 in0.0 mm
02:30 AM 40.4°F4.7°C 37.1°F2.8°C 88% 3.5 mph ENE5.6 kmh ENE 3.5 mph5.6 kmh 29.96 in1014.6 mb - 0.00 in0.0 mm 0.00 in0.0 mm
02:35 AM 40.3°F4.6°C 37.0°F2.8°C 88% 3.5 mph ENE5.6 kmh ENE 4.6 mph7.4 kmh 29.96 in1014.6 mb - 0.00 in0.0 mm 0.00 in0.0 mm
02:40 AM 40.1°F4.5°C 36.8°F2.7°C 88% 3.5 mph ENE5.6 kmh ENE 3.5 mph5.6 kmh 29.96 in1014.6 mb - 0.00 in0.0 mm 0.00 in0.0 mm
02:45 AM 39.9°F4.4°C 36.6°F2.6°C 88% 3.5 mph NE5.6 kmh NE 4.6 mph7.4 kmh 29.96 in1014.6 mb - 0.00 in0.0 mm 0.00 in0.0 mm
02:50 AM 39.9°F4.4°C 36.9°F2.7°C 89% 3.5 mph ENE5.6 kmh ENE 4.6 mph7.4 kmh 29.96 in1014.6 mb - 0.00 in0.0 mm 0.00 in0.0 mm
02:55 AM 40.0°F4.4°C 37.0°F2.8°C 89% 3.5 mph NE5.6 kmh NE 3.5 mph5.6 kmh 29.96 in1014.6 mb - 0.00 in0.0 mm 0.00 in0.0 mm
03:00 AM 40.0°F4.4°C 37.0°F2.8°C 89% 3.5 mph ENE5.6 kmh ENE 3.5 mph5.6 kmh 29.96 in1014.6 mb - 0.00 in0.0 mm 0.00 in0.0 mm
03:05 AM 39.8°F4.3°C 36.8°F2.7°C 89% 2.3 mph ENE3.7 kmh ENE 3.5 mph5.6 kmh 29.96 in1014.6 mb - 0.00 in0.0 mm 0.00 in0.0 mm
03:10 AM 39.7°F4.3°C 36.7°F2.6°C 89% 3.5 mph ENE5.6 kmh ENE 4.6 mph7.4 kmh 29.96 in1014.6 mb - 0.00 in0.0 mm 0.00 in0.0 mm
03:15 AM 39.9°F4.4°C 37.0°F2.8°C 89% 2.3 mph ENE3.7 kmh ENE 3.5 mph5.6 kmh 29.96 in1014.6 mb - 0.00 in0.0 mm 0.00 in0.0 mm
03:20 AM 39.9°F4.4°C 36.9°F2.7°C 89% 3.5 mph ENE5.6 kmh ENE 3.5 mph5.6 kmh 29.96 in1014.6 mb - 0.00 in0.0 mm 0.00 in0.0 mm
03:25 AM 39.8°F4.3°C 36.8°F2.7°C 89% 2.3 mph ENE3.7 kmh ENE 3.5 mph5.6 kmh 29.96 in1014.6 mb - 0.00 in0.0 mm 0.00 in0.0 mm
03:30 AM 39.8°F4.3°C 36.8°F2.7°C 89% 2.3 mph ENE3.7 kmh ENE 3.5 mph5.6 kmh 29.96 in1014.6 mb - 0.00 in0.0 mm 0.00 in0.0 mm
03:35 AM 39.8°F4.3°C 36.8°F2.7°C 89% 2.3 mph NE3.7 kmh NE 3.5 mph5.6 kmh 29.96 in1014.6 mb - 0.00 in0.0 mm 0.00 in0.0 mm
03:40 AM 39.7°F4.3°C 36.7°F2.6°C 89% 2.3 mph NE3.7 kmh NE 3.5 mph5.6 kmh 29.96 in1014.6 mb - 0.00 in0.0 mm 0.00 in0.0 mm
03:45 AM 39.7°F4.3°C 36.7°F2.6°C 89% 4.6 mph E7.4 kmh E 5.8 mph9.3 kmh 29.96 in1014.6 mb - 0.00 in0.0 mm 0.00 in0.0 mm
03:50 AM 39.9°F4.4°C 36.9°F2.7°C 89% 3.5 mph ENE5.6 kmh ENE 3.5 mph5.6 kmh 29.96 in1014.6 mb - 0.00 in0.0 mm 0.00 in0.0 mm
03:55 AM 39.9°F4.4°C 36.9°F2.7°C 89% 2.3 mph ENE3.7 kmh ENE 3.5 mph5.6 kmh 29.96 in1014.6 mb - 0.00 in0.0 mm 0.00 in0.0 mm
04:00 AM 39.9°F4.4°C 36.9°F2.7°C 89% 2.3 mph ENE3.7 kmh ENE 3.5 mph5.6 kmh 29.96 in1014.6 mb - 0.00 in0.0 mm 0.00 in0.0 mm
04:05 AM 39.9°F4.4°C 36.9°F2.7°C 89% 2.3 mph ENE3.7 kmh ENE 3.5 mph5.6 kmh 29.96 in1014.6 mb - 0.00 in0.0 mm 0.00 in0.0 mm
04:10 AM 40.0°F4.4°C 37.0°F2.8°C 89% 3.5 mph ENE5.6 kmh ENE 4.6 mph7.4 kmh 29.96 in1014.6 mb - 0.00 in0.0 mm 0.00 in0.0 mm
04:15 AM 40.1°F4.5°C 37.1°F2.8°C 89% 4.6 mph E7.4 kmh E 6.9 mph11.1 kmh 29.96 in1014.6 mb - 0.00 in0.0 mm 0.00 in0.0 mm
04:20 AM 40.3°F4.6°C 37.3°F2.9°C 89% 3.5 mph ENE5.6 kmh ENE 4.6 mph7.4 kmh 29.96 in1014.6 mb - 0.00 in0.0 mm 0.00 in0.0 mm
04:25 AM 40.3°F4.6°C 37.3°F2.9°C 89% 3.5 mph ENE5.6 kmh ENE 4.6 mph7.4 kmh 29.96 in1014.6 mb - 0.00 in0.0 mm 0.00 in0.0 mm
04:30 AM 40.1°F4.5°C 37.2°F2.9°C 89% 3.5 mph NE5.6 kmh NE 3.5 mph5.6 kmh 29.96 in1014.6 mb - 0.00 in0.0 mm 0.00 in0.0 mm
04:35 AM 40.1°F4.5°C 37.1°F2.8°C 89% 4.6 mph ENE7.4 kmh ENE 8.1 mph13.0 kmh 29.96 in1014.6 mb - 0.00 in0.0 mm 0.00 in0.0 mm
04:40 AM 40.3°F4.6°C 37.4°F3.0°C 89% 2.3 mph ENE3.7 kmh ENE 4.6 mph7.4 kmh 29.96 in1014.6 mb - 0.00 in0.0 mm 0.00 in0.0 mm
04:45 AM 40.5°F4.7°C 37.5°F3.1°C 89% 3.5 mph NE5.6 kmh NE 4.6 mph7.4 kmh 29.96 in1014.6 mb - 0.00 in0.0 mm 0.00 in0.0 mm
04:50 AM 40.5°F4.7°C 37.5°F3.1°C 89% 2.3 mph ENE3.7 kmh ENE 3.5 mph5.6 kmh 29.96 in1014.6 mb - 0.00 in0.0 mm 0.00 in0.0 mm
04:55 AM 40.4°F4.7°C 37.4°F3.0°C 89% 2.3 mph ENE3.7 kmh ENE 3.5 mph5.6 kmh 29.96 in1014.6 mb - 0.00 in0.0 mm 0.00 in0.0 mm
05:00 AM 40.4°F4.7°C 37.4°F3.0°C 89% 2.3 mph NE3.7 kmh NE 2.3 mph3.7 kmh 29.96 in1014.6 mb - 0.00 in0.0 mm 0.00 in0.0 mm
05:05 AM 40.5°F4.7°C 37.5°F3.1°C 89% 2.3 mph NE3.7 kmh NE 3.5 mph5.6 kmh 29.96 in1014.6 mb - 0.00 in0.0 mm 0.00 in0.0 mm
05:10 AM 40.5°F4.7°C 37.6°F3.1°C 89% 2.3 mph E3.7 kmh E 5.8 mph9.3 kmh 29.96 in1014.6 mb - 0.00 in0.0 mm 0.00 in0.0 mm
05:15 AM 40.9°F4.9°C 38.2°F3.4°C 90% 2.3 mph ENE3.7 kmh ENE 3.5 mph5.6 kmh 29.96 in1014.6 mb - 0.00 in0.0 mm 0.00 in0.0 mm
05:20 AM 40.9°F4.9°C 38.2°F3.4°C 90% Calm Calm 1.2 mph1.9 kmh 29.96 in1014.6 mb - 0.00 in0.0 mm 0.00 in0.0 mm
05:25 AM 40.9°F4.9°C 37.9°F3.3°C 89% 3.5 mph ENE5.6 kmh ENE 3.5 mph5.6 kmh 29.96 in1014.6 mb - 0.00 in0.0 mm 0.00 in0.0 mm
05:30 AM 40.9°F4.9°C 37.9°F3.3°C 89% 2.3 mph ENE3.7 kmh ENE 3.5 mph5.6 kmh 29.96 in1014.6 mb - 0.00 in0.0 mm 0.00 in0.0 mm
05:35 AM 40.8°F4.9°C 37.8°F3.2°C 89% 3.5 mph ENE5.6 kmh ENE 3.5 mph5.6 kmh 29.96 in1014.6 mb - 0.00 in0.0 mm 0.00 in0.0 mm
05:40 AM 40.7°F4.8°C 37.7°F3.2°C 89% 3.5 mph ENE5.6 kmh ENE 4.6 mph7.4 kmh 29.96 in1014.6 mb - 0.00 in0.0 mm 0.00 in0.0 mm
05:45 AM 40.7°F4.8°C 37.7°F3.2°C 89% 2.3 mph E3.7 kmh E 3.5 mph5.6 kmh 29.96 in1014.6 mb - 0.00 in0.0 mm 0.00 in0.0 mm
05:50 AM 40.9°F4.9°C 37.9°F3.3°C 89% 2.3 mph NNE3.7 kmh NNE 3.5 mph5.6 kmh 29.95 in1014.2 mb - 0.00 in0.0 mm 0.00 in0.0 mm
05:55 AM 41.2°F5.1°C 38.2°F3.4°C 89% 1.2 mph E1.9 kmh E 2.3 mph3.7 kmh 29.96 in1014.6 mb - 0.00 in0.0 mm 0.00 in0.0 mm
06:00 AM 41.5°F5.3°C 38.8°F3.8°C 90% 2.3 mph E3.7 kmh E 3.5 mph5.6 kmh 29.96 in1014.6 mb - 0.00 in0.0 mm 0.00 in0.0 mm
06:05 AM 41.8°F5.4°C 39.1°F3.9°C 90% 3.5 mph NE5.6 kmh NE 4.6 mph7.4 kmh 29.96 in1014.6 mb - 0.00 in0.0 mm 0.00 in0.0 mm
06:10 AM 42.0°F5.6°C 39.3°F4.1°C 90% 2.3 mph NE3.7 kmh NE 4.6 mph7.4 kmh 29.96 in1014.6 mb - 0.00 in0.0 mm 0.00 in0.0 mm
06:15 AM 42.2°F5.7°C 39.5°F4.2°C 90% 3.5 mph NE5.6 kmh NE 4.6 mph7.4 kmh 29.96 in1014.6 mb - 0.00 in0.0 mm 0.00 in0.0 mm
06:20 AM 42.6°F5.9°C 39.8°F4.3°C 90% 3.5 mph E5.6 kmh E 4.6 mph7.4 kmh 29.95 in1014.2 mb - 0.00 in0.0 mm 0.00 in0.0 mm
06:25 AM 42.7°F5.9°C 40.0°F4.4°C 90% 2.3 mph ENE3.7 kmh ENE 3.5 mph5.6 kmh 29.95 in1014.2 mb - 0.00 in0.0 mm 0.00 in0.0 mm
06:30 AM 42.6°F5.9°C 39.9°F4.4°C 90% 2.3 mph ENE3.7 kmh ENE 3.5 mph5.6 kmh 29.96 in1014.6 mb - 0.00 in0.0 mm 0.00 in0.0 mm
06:35 AM 42.7°F5.9°C 39.7°F4.3°C 89% 1.2 mph NE1.9 kmh NE 3.5 mph5.6 kmh 29.96 in1014.6 mb - 0.00 in0.0 mm 0.00 in0.0 mm
06:40 AM 42.7°F5.9°C 39.7°F4.3°C 89% 1.2 mph NE1.9 kmh NE 2.3 mph3.7 kmh 29.96 in1014.6 mb - 0.00 in0.0 mm 0.00 in0.0 mm
06:45 AM 42.9°F6.1°C 39.9°F4.4°C 89% Calm Calm -- 29.96 in1014.6 mb - 0.00 in0.0 mm 0.00 in0.0 mm
06:50 AM 43.2°F6.2°C 40.2°F4.6°C 89% 1.2 mph E1.9 kmh E 3.5 mph5.6 kmh 29.96 in1014.6 mb - 0.00 in0.0 mm 0.00 in0.0 mm
06:55 AM 43.6°F6.4°C 40.9°F4.9°C 90% 1.2 mph E1.9 kmh E 3.5 mph5.6 kmh 29.96 in1014.6 mb - 0.00 in0.0 mm 0.00 in0.0 mm
07:00 AM 43.9°F6.6°C 40.9°F4.9°C 89% 2.3 mph ENE3.7 kmh ENE 3.5 mph5.6 kmh 29.96 in1014.6 mb - 0.00 in0.0 mm 0.00 in0.0 mm
07:05 AM 44.2°F6.8°C 41.5°F5.3°C 90% Calm Calm -- 29.96 in1014.6 mb - 0.00 in0.0 mm 0.00 in0.0 mm
07:10 AM 44.4°F6.9°C 41.7°F5.4°C 90% Calm Calm -- 29.96 in1014.6 mb - 0.00 in0.0 mm 0.00 in0.0 mm
07:15 AM 44.8°F7.1°C 42.0°F5.6°C 90% 1.2 mph ENE1.9 kmh ENE 2.3 mph3.7 kmh 29.96 in1014.6 mb - 0.00 in0.0 mm 0.00 in0.0 mm
07:20 AM 45.2°F7.3°C 42.1°F5.6°C 89% 3.5 mph E5.6 kmh E 3.5 mph5.6 kmh 29.96 in1014.6 mb - 0.00 in0.0 mm 0.00 in0.0 mm
07:25 AM 45.6°F7.6°C 42.9°F6.1°C 90% 1.2 mph E1.9 kmh E 3.5 mph5.6 kmh 29.96 in1014.6 mb - 0.00 in0.0 mm 0.00 in0.0 mm
07:30 AM 45.9°F7.7°C 42.9°F6.1°C 89% 2.3 mph E3.7 kmh E 3.5 mph5.6 kmh 29.96 in1014.6 mb - 0.00 in0.0 mm 0.00 in0.0 mm
07:35 AM 46.3°F7.9°C 43.2°F6.2°C 89% 2.3 mph E3.7 kmh E 3.5 mph5.6 kmh 29.96 in1014.6 mb - 0.00 in0.0 mm 0.00 in0.0 mm
07:40 AM 46.6°F8.1°C 43.5°F6.4°C 89% 3.5 mph E5.6 kmh E 3.5 mph5.6 kmh 29.96 in1014.6 mb - 0.00 in0.0 mm 0.00 in0.0 mm
07:45 AM 47.0°F8.3°C 43.9°F6.6°C 89% 3.5 mph E5.6 kmh E 3.5 mph5.6 kmh 29.96 in1014.6 mb - 0.00 in0.0 mm 0.00 in0.0 mm
07:50 AM 47.4°F8.6°C 44.3°F6.8°C 89% 2.3 mph E3.7 kmh E 3.5 mph5.6 kmh 29.96 in1014.6 mb - 0.00 in0.0 mm 0.00 in0.0 mm
07:55 AM 47.6°F8.7°C 44.2°F6.8°C 88% 1.2 mph E1.9 kmh E 2.3 mph3.7 kmh 29.96 in1014.6 mb - 0.00 in0.0 mm 0.00 in0.0 mm
08:00 AM 47.8°F8.8°C 44.4°F6.9°C 88% 2.3 mph ESE3.7 kmh ESE 3.5 mph5.6 kmh 29.96 in1014.6 mb - 0.00 in0.0 mm 0.00 in0.0 mm
08:05 AM 47.9°F8.8°C 44.2°F6.8°C 87% 3.5 mph E5.6 kmh E 3.5 mph5.6 kmh 29.96 in1014.6 mb - 0.00 in0.0 mm 0.00 in0.0 mm
08:10 AM 48.2°F9.0°C 44.5°F6.9°C 87% 1.2 mph E1.9 kmh E 3.5 mph5.6 kmh 29.96 in1014.6 mb - 0.00 in0.0 mm 0.00 in0.0 mm
08:15 AM 48.3°F9.1°C 44.6°F7.0°C 87% 2.3 mph E3.7 kmh E 3.5 mph5.6 kmh 29.96 in1014.6 mb - 0.00 in0.0 mm 0.00 in0.0 mm
08:20 AM 48.5°F9.2°C 44.8°F7.1°C 87% 2.3 mph E3.7 kmh E 3.5 mph5.6 kmh 29.95 in1014.2 mb - 0.00 in0.0 mm 0.00 in0.0 mm
08:25 AM 48.8°F9.3°C 45.1°F7.3°C 87% 2.3 mph ESE3.7 kmh ESE 4.6 mph7.4 kmh 29.96 in1014.6 mb - 0.00 in0.0 mm 0.00 in0.0 mm
08:30 AM 49.0°F9.4°C 45.0°F7.2°C 86% 2.3 mph E3.7 kmh E 6.9 mph11.1 kmh 29.96 in1014.6 mb - 0.00 in0.0 mm 0.00 in0.0 mm
08:35 AM 49.2°F9.6°C 45.2°F7.3°C 86% 4.6 mph E7.4 kmh E 9.2 mph14.8 kmh 29.96 in1014.6 mb - 0.00 in0.0 mm 0.00 in0.0 mm
08:40 AM 49.4°F9.7°C 45.0°F7.2°C 85% 3.5 mph ESE5.6 kmh ESE 5.8 mph9.3 kmh 29.96 in1014.6 mb - 0.00 in0.0 mm 0.00 in0.0 mm
08:45 AM 49.6°F9.8°C 45.2°F7.3°C 85% 3.5 mph ESE5.6 kmh ESE 6.9 mph11.1 kmh 29.96 in1014.6 mb - 0.00 in0.0 mm 0.00 in0.0 mm
08:50 AM 49.7°F9.8°C 45.4°F7.4°C 85% 2.3 mph E3.7 kmh E 3.5 mph5.6 kmh 29.96 in1014.6 mb - 0.00 in0.0 mm 0.00 in0.0 mm
08:55 AM 49.9°F9.9°C 45.3°F7.4°C 84% 2.3 mph ESE3.7 kmh ESE 6.9 mph11.1 kmh 29.96 in1014.6 mb - 0.00 in0.0 mm 0.00 in0.0 mm
09:00 AM 50.0°F10.0°C 45.4°F7.4°C 84% 3.5 mph ESE5.6 kmh ESE 6.9 mph11.1 kmh 29.96 in1014.6 mb - 0.00 in0.0 mm 0.00 in0.0 mm
09:05 AM 50.1°F10.1°C 45.5°F7.5°C 84% 3.5 mph E5.6 kmh E 6.9 mph11.1 kmh 29.96 in1014.6 mb - 0.00 in0.0 mm 0.00 in0.0 mm
09:10 AM 50.2°F10.1°C 45.6°F7.6°C 84% 3.5 mph E5.6 kmh E 5.8 mph9.3 kmh 29.96 in1014.6 mb - 0.00 in0.0 mm 0.00 in0.0 mm
09:15 AM 50.4°F10.2°C 45.7°F7.6°C 84% 3.5 mph E5.6 kmh E 6.9 mph11.1 kmh 29.96 in1014.6 mb - 0.00 in0.0 mm 0.00 in0.0 mm
09:20 AM 50.5°F10.3°C 45.9°F7.7°C 84% 3.5 mph E5.6 kmh E 8.1 mph13.0 kmh 29.95 in1014.2 mb - 0.00 in0.0 mm 0.00 in0.0 mm
09:25 AM 50.8°F10.4°C 46.1°F7.8°C 84% 3.5 mph ESE5.6 kmh ESE 6.9 mph11.1 kmh 29.95 in1014.2 mb - 0.00 in0.0 mm 0.00 in0.0 mm
09:30 AM 51.2°F10.7°C 46.2°F7.9°C 83% 4.6 mph E7.4 kmh E 6.9 mph11.1 kmh 29.95 in1014.2 mb - 0.00 in0.0 mm 0.00 in0.0 mm
09:35 AM 51.5°F10.8°C 46.5°F8.1°C 83% 4.6 mph ESE7.4 kmh ESE 9.2 mph14.8 kmh 29.95 in1014.2 mb - 0.00 in0.0 mm 0.00 in0.0 mm
09:40 AM 51.9°F11.1°C 46.6°F8.1°C 82% 4.6 mph ESE7.4 kmh ESE 6.9 mph11.1 kmh 29.95 in1014.2 mb - 0.00 in0.0 mm 0.00 in0.0 mm
09:45 AM 52.2°F11.2°C 46.8°F8.2°C 82% 5.8 mph ESE9.3 kmh ESE 8.1 mph13.0 kmh 29.95 in1014.2 mb - 0.00 in0.0 mm 0.00 in0.0 mm
09:50 AM 52.3°F11.3°C 46.6°F8.1°C 81% 4.6 mph ESE7.4 kmh ESE 6.9 mph11.1 kmh 29.95 in1014.2 mb - 0.00 in0.0 mm 0.00 in0.0 mm
09:55 AM 52.4°F11.3°C 46.7°F8.2°C 81% 3.5 mph ESE5.6 kmh ESE 3.5 mph5.6 kmh 29.94 in1013.9 mb - 0.00 in0.0 mm 0.00 in0.0 mm
10:00 AM 52.5°F11.4°C 46.5°F8.1°C 80% 6.9 mph E11.1 kmh E 10.4 mph16.7 kmh 29.94 in1013.9 mb - 0.00 in0.0 mm 0.00 in0.0 mm
10:05 AM 52.7°F11.5°C 46.7°F8.2°C 80% 6.9 mph E11.1 kmh E 12.7 mph20.4 kmh 29.94 in1013.9 mb - 0.00 in0.0 mm 0.00 in0.0 mm
10:10 AM 52.8°F11.6°C 46.8°F8.2°C 80% 5.8 mph ESE9.3 kmh ESE 9.2 mph14.8 kmh 29.95 in1014.2 mb - 0.00 in0.0 mm 0.00 in0.0 mm
10:15 AM 53.0°F11.7°C 47.0°F8.3°C 80% 5.8 mph ESE9.3 kmh ESE 8.1 mph13.0 kmh 29.95 in1014.2 mb - 0.00 in0.0 mm 0.00 in0.0 mm
10:20 AM 53.0°F11.7°C 47.0°F8.3°C 80% 5.8 mph E9.3 kmh E 10.4 mph16.7 kmh 29.94 in1013.9 mb - 0.00 in0.0 mm 0.00 in0.0 mm
10:25 AM 53.2°F11.8°C 46.9°F8.3°C 79% 6.9 mph E11.1 kmh E 10.4 mph16.7 kmh 29.94 in1013.9 mb - 0.00 in0.0 mm 0.00 in0.0 mm
10:30 AM 53.3°F11.8°C 47.0°F8.3°C 79% 5.8 mph ESE9.3 kmh ESE 6.9 mph11.1 kmh 29.94 in1013.9 mb - 0.00 in0.0 mm 0.00 in0.0 mm
10:35 AM 53.5°F11.9°C 47.1°F8.4°C 79% 4.6 mph E7.4 kmh E 10.4 mph16.7 kmh 29.94 in1013.9 mb - 0.00 in0.0 mm 0.00 in0.0 mm
10:40 AM 53.6°F12.0°C 47.2°F8.4°C 79% 4.6 mph ESE7.4 kmh ESE 8.1 mph13.0 kmh 29.94 in1013.9 mb - 0.00 in0.0 mm 0.00 in0.0 mm
10:45 AM 53.8°F12.1°C 47.8°F8.8°C 80% 5.8 mph E9.3 kmh E 9.2 mph14.8 kmh 29.94 in1013.9 mb - 0.00 in0.0 mm 0.00 in0.0 mm
10:50 AM 54.0°F12.2°C 48.0°F8.9°C 80% 5.8 mph ESE9.3 kmh ESE 10.4 mph16.7 kmh 29.94 in1013.9 mb - 0.00 in0.0 mm 0.00 in0.0 mm
10:55 AM 54.2°F12.3°C 48.2°F9.0°C 80% 5.8 mph E9.3 kmh E 8.1 mph13.0 kmh 29.94 in1013.9 mb - 0.00 in0.0 mm 0.00 in0.0 mm
11:00 AM 54.4°F12.4°C 48.4°F9.1°C 80% 5.8 mph E9.3 kmh E 11.5 mph18.5 kmh 29.94 in1013.9 mb - 0.00 in0.0 mm 0.00 in0.0 mm
11:05 AM 54.4°F12.4°C 48.4°F9.1°C 80% 8.1 mph E13.0 kmh E 8.1 mph13.0 kmh 29.94 in1013.9 mb - 0.00 in0.0 mm 0.00 in0.0 mm
11:10 AM 54.5°F12.5°C 48.8°F9.3°C 81% 5.8 mph ESE9.3 kmh ESE 9.2 mph14.8 kmh 29.94 in1013.9 mb - 0.01 in0.3 mm 0.01 in0.3 mm
11:15 AM 54.4°F12.4°C 48.7°F9.3°C 81% 6.9 mph ESE11.1 kmh ESE 10.4 mph16.7 kmh 29.94 in1013.9 mb - 0.00 in0.0 mm 0.01 in0.3 mm
11:20 AM 54.4°F12.4°C 48.7°F9.3°C 81% 5.8 mph ESE9.3 kmh ESE 6.9 mph11.1 kmh 29.93 in1013.5 mb - 0.00 in0.0 mm 0.01 in0.3 mm
11:25 AM 54.2°F12.3°C 48.5°F9.2°C 81% 5.8 mph E9.3 kmh E 12.7 mph20.4 kmh 29.93 in1013.5 mb - 0.00 in0.0 mm 0.01 in0.3 mm
11:30 AM 54.1°F12.3°C 48.4°F9.1°C 81% 5.8 mph E9.3 kmh E 5.8 mph9.3 kmh 29.93 in1013.5 mb - 0.00 in0.0 mm 0.01 in0.3 mm
11:35 AM 54.1°F12.3°C 48.4°F9.1°C 81% 6.9 mph E11.1 kmh E 8.1 mph13.0 kmh 29.93 in1013.5 mb - 0.00 in0.0 mm 0.01 in0.3 mm
11:40 AM 54.1°F12.3°C 48.4°F9.1°C 81% 5.8 mph ESE9.3 kmh ESE 8.1 mph13.0 kmh 29.93 in1013.5 mb - 0.00 in0.0 mm 0.01 in0.3 mm
11:45 AM 54.1°F12.3°C 48.4°F9.1°C 81% 6.9 mph E11.1 kmh E 10.4 mph16.7 kmh 29.93 in1013.5 mb - 0.00 in0.0 mm 0.01 in0.3 mm
11:50 AM 54.2°F12.3°C 48.5°F9.2°C 81% 8.1 mph E13.0 kmh E 9.2 mph14.8 kmh 29.93 in1013.5 mb - 0.00 in0.0 mm 0.01 in0.3 mm
11:55 AM 54.3°F12.4°C 48.6°F9.2°C 81% 5.8 mph E9.3 kmh E 8.1 mph13.0 kmh 29.93 in1013.5 mb - 0.00 in0.0 mm 0.01 in0.3 mm
12:00 PM 54.4°F12.4°C 48.4°F9.1°C 80% 6.9 mph ESE11.1 kmh ESE 10.4 mph16.7 kmh 29.93 in1013.5 mb - 0.00 in0.0 mm 0.01 in0.3 mm
12:05 PM 54.4°F12.4°C 48.4°F9.1°C 80% 5.8 mph ESE9.3 kmh ESE 9.2 mph14.8 kmh 29.92 in1013.2 mb - 0.00 in0.0 mm 0.01 in0.3 mm
12:10 PM 54.2°F12.3°C 48.5°F9.2°C 81% 4.6 mph E7.4 kmh E 8.1 mph13.0 kmh 29.93 in1013.5 mb - 0.00 in0.0 mm 0.01 in0.3 mm
12:15 PM 54.1°F12.3°C 48.1°F8.9°C 80% 4.6 mph ESE7.4 kmh ESE 6.9 mph11.1 kmh 29.93 in1013.5 mb - 0.00 in0.0 mm 0.01 in0.3 mm
12:20 PM 54.1°F12.3°C 48.4°F9.1°C 81% 8.1 mph E13.0 kmh E 11.5 mph18.5 kmh 29.93 in1013.5 mb - 0.00 in0.0 mm 0.01 in0.3 mm
12:25 PM 54.1°F12.3°C 48.4°F9.1°C 81% 6.9 mph E11.1 kmh E 9.2 mph14.8 kmh 29.93 in1013.5 mb - 0.00 in0.0 mm 0.01 in0.3 mm
12:30 PM 54.2°F12.3°C 48.8°F9.3°C 82% 4.6 mph E7.4 kmh E 10.4 mph16.7 kmh 29.93 in1013.5 mb - 0.00 in0.0 mm 0.01 in0.3 mm
12:35 PM 54.4°F12.4°C 48.7°F9.3°C 81% 9.2 mph ESE14.8 kmh ESE 12.7 mph20.4 kmh 29.92 in1013.2 mb - 0.00 in0.0 mm 0.01 in0.3 mm
12:40 PM 54.5°F12.5°C 48.5°F9.2°C 80% 6.9 mph E11.1 kmh E 11.5 mph18.5 kmh 29.92 in1013.2 mb - 0.00 in0.0 mm 0.01 in0.3 mm
12:45 PM 54.7°F12.6°C 48.6°F9.2°C 80% 8.1 mph ESE13.0 kmh ESE 11.5 mph18.5 kmh 29.92 in1013.2 mb - 0.00 in0.0 mm 0.01 in0.3 mm
12:50 PM 54.7°F12.6°C 48.6°F9.2°C 80% 6.9 mph E11.1 kmh E 11.5 mph18.5 kmh 29.92 in1013.2 mb - 0.00 in0.0 mm 0.01 in0.3 mm
12:55 PM 54.8°F12.7°C 48.4°F9.1°C 79% 6.9 mph ESE11.1 kmh ESE 9.2 mph14.8 kmh 29.92 in1013.2 mb - 0.00 in0.0 mm 0.01 in0.3 mm
01:00 PM 54.8°F12.7°C 48.4°F9.1°C 79% 5.8 mph ESE9.3 kmh ESE 10.4 mph16.7 kmh 29.92 in1013.2 mb - 0.00 in0.0 mm 0.01 in0.3 mm
01:05 PM 54.8°F12.7°C 47.1°F8.4°C 75% 10.4 mph SE16.7 kmh SE 18.4 mph29.6 kmh 29.92 in1013.2 mb - 0.00 in0.0 mm 0.01 in0.3 mm
01:10 PM 55.2°F12.9°C 47.0°F8.3°C 74% 8.1 mph SE13.0 kmh SE 10.4 mph16.7 kmh 29.92 in1013.2 mb - 0.00 in0.0 mm 0.01 in0.3 mm
01:15 PM 55.3°F12.9°C 47.2°F8.4°C 74% 5.8 mph SE9.3 kmh SE 11.5 mph18.5 kmh 29.92 in1013.2 mb - 0.00 in0.0 mm 0.01 in0.3 mm
01:20 PM 55.3°F12.9°C 47.2°F8.4°C 74% 5.8 mph ESE9.3 kmh ESE 10.4 mph16.7 kmh 29.92 in1013.2 mb - 0.00 in0.0 mm 0.01 in0.3 mm
01:25 PM 55.3°F12.9°C 47.5°F8.6°C 75% 6.9 mph E11.1 kmh E 9.2 mph14.8 kmh 29.92 in1013.2 mb - 0.00 in0.0 mm 0.01 in0.3 mm
01:30 PM 55.3°F12.9°C 47.9°F8.8°C 76% 5.8 mph E9.3 kmh E 10.4 mph16.7 kmh 29.92 in1013.2 mb - 0.00 in0.0 mm 0.01 in0.3 mm
01:35 PM 55.1°F12.8°C 47.3°F8.5°C 75% 3.5 mph SE5.6 kmh SE 4.6 mph7.4 kmh 29.92 in1013.2 mb - 0.00 in0.0 mm 0.01 in0.3 mm
01:40 PM 55.2°F12.9°C 47.4°F8.6°C 75% 8.1 mph E13.0 kmh E 11.5 mph18.5 kmh 29.92 in1013.2 mb - 0.00 in0.0 mm 0.01 in0.3 mm
01:45 PM 55.1°F12.8°C 47.7°F8.7°C 76% 6.9 mph E11.1 kmh E 11.5 mph18.5 kmh 29.92 in1013.2 mb - 0.00 in0.0 mm 0.01 in0.3 mm
01:50 PM 55.1°F12.8°C 47.3°F8.5°C 75% 5.8 mph E9.3 kmh E 9.2 mph14.8 kmh 29.91 in1012.9 mb - 0.00 in0.0 mm 0.01 in0.3 mm
01:55 PM 55.1°F12.8°C 47.3°F8.5°C 75% 6.9 mph E11.1 kmh E 9.2 mph14.8 kmh 29.91 in1012.9 mb - 0.00 in0.0 mm 0.01 in0.3 mm
02:00 PM 55.1°F12.8°C 47.3°F8.5°C 75% 4.6 mph ESE7.4 kmh ESE 8.1 mph13.0 kmh 29.91 in1012.9 mb - 0.00 in0.0 mm 0.01 in0.3 mm
02:05 PM 55.0°F12.8°C 47.3°F8.5°C 75% 4.6 mph ESE7.4 kmh ESE 4.6 mph7.4 kmh 29.91 in1012.9 mb - 0.00 in0.0 mm 0.01 in0.3 mm
02:10 PM 55.0°F12.8°C 47.2°F8.4°C 75% 5.8 mph E9.3 kmh E 9.2 mph14.8 kmh 29.91 in1012.9 mb - 0.00 in0.0 mm 0.01 in0.3 mm
02:15 PM 55.0°F12.8°C 46.9°F8.3°C 74% 5.8 mph ESE9.3 kmh ESE 9.2 mph14.8 kmh 29.91 in1012.9 mb - 0.00 in0.0 mm 0.01 in0.3 mm
02:20 PM 54.9°F12.7°C 46.8°F8.2°C 74% 6.9 mph E11.1 kmh E 8.1 mph13.0 kmh 29.91 in1012.9 mb - 0.00 in0.0 mm 0.01 in0.3 mm
02:25 PM 54.9°F12.7°C 47.1°F8.4°C 75% 6.9 mph ESE11.1 kmh ESE 8.1 mph13.0 kmh 29.92 in1013.2 mb - 0.00 in0.0 mm 0.01 in0.3 mm
02:30 PM 54.8°F12.7°C 47.0°F8.3°C 75% 8.1 mph ESE13.0 kmh ESE 10.4 mph16.7 kmh 29.92 in1013.2 mb - 0.00 in0.0 mm 0.01 in0.3 mm
02:35 PM 54.6°F12.6°C 46.8°F8.2°C 75% 6.9 mph E11.1 kmh E 10.4 mph16.7 kmh 29.91 in1012.9 mb - 0.00 in0.0 mm 0.01 in0.3 mm
02:40 PM 54.5°F12.5°C 47.1°F8.4°C 76% 6.9 mph E11.1 kmh E 10.4 mph16.7 kmh 29.91 in1012.9 mb - 0.00 in0.0 mm 0.01 in0.3 mm
02:45 PM 54.5°F12.5°C 47.1°F8.4°C 76% 4.6 mph E7.4 kmh E 9.2 mph14.8 kmh 29.91 in1012.9 mb - 0.00 in0.0 mm 0.01 in0.3 mm
02:50 PM 54.5°F12.5°C 47.1°F8.4°C 76% 6.9 mph E11.1 kmh E 11.5 mph18.5 kmh 29.91 in1012.9 mb - 0.00 in0.0 mm 0.01 in0.3 mm
02:55 PM 54.6°F12.6°C 46.8°F8.2°C 75% 8.1 mph E13.0 kmh E 11.5 mph18.5 kmh 29.91 in1012.9 mb - 0.00 in0.0 mm 0.01 in0.3 mm
03:00 PM 54.6°F12.6°C 46.8°F8.2°C 75% 8.1 mph E13.0 kmh E 10.4 mph16.7 kmh 29.91 in1012.9 mb - 0.00 in0.0 mm 0.01 in0.3 mm
03:05 PM 54.6°F12.6°C 46.8°F8.2°C 75% 6.9 mph E11.1 kmh E 11.5 mph18.5 kmh 29.91 in1012.9 mb - 0.00 in0.0 mm 0.01 in0.3 mm
03:10 PM 54.5°F12.5°C 47.1°F8.4°C 76% 9.2 mph E14.8 kmh E 13.8 mph22.2 kmh 29.91 in1012.9 mb - 0.00 in0.0 mm 0.01 in0.3 mm
03:15 PM 54.5°F12.5°C 47.1°F8.4°C 76% 8.1 mph ESE13.0 kmh ESE 10.4 mph16.7 kmh 29.91 in1012.9 mb - 0.00 in0.0 mm 0.01 in0.3 mm
03:20 PM 54.7°F12.6°C 46.9°F8.3°C 75% 8.1 mph ESE13.0 kmh ESE 9.2 mph14.8 kmh 29.91 in1012.9 mb - 0.00 in0.0 mm 0.01 in0.3 mm
03:25 PM 54.9°F12.7°C 47.1°F8.4°C 75% 5.8 mph ESE9.3 kmh ESE 10.4 mph16.7 kmh 29.91 in1012.9 mb - 0.00 in0.0 mm 0.01 in0.3 mm
03:30 PM 54.7°F12.6°C 47.3°F8.5°C 76% 5.8 mph SE9.3 kmh SE 8.1 mph13.0 kmh 29.91 in1012.9 mb - 0.00 in0.0 mm 0.01 in0.3 mm
03:35 PM 54.5°F12.5°C 47.4°F8.6°C 77% 5.8 mph ESE9.3 kmh ESE 9.2 mph14.8 kmh 29.91 in1012.9 mb - 0.01 in0.3 mm 0.02 in0.5 mm
03:40 PM 54.3°F12.4°C 47.9°F8.8°C 79% 3.5 mph SE5.6 kmh SE 6.9 mph11.1 kmh 29.91 in1012.9 mb - 0.01 in0.3 mm 0.03 in0.8 mm
03:45 PM 54.0°F12.2°C 48.0°F8.9°C 80% 5.8 mph ESE9.3 kmh ESE 9.2 mph14.8 kmh 29.91 in1012.9 mb - 0.01 in0.3 mm 0.03 in0.8 mm
03:50 PM 53.7°F12.1°C 48.1°F8.9°C 81% 1.2 mph ESE1.9 kmh ESE 3.5 mph5.6 kmh 29.91 in1012.9 mb - 0.02 in0.5 mm 0.05 in1.3 mm
03:55 PM 53.5°F11.9°C 47.8°F8.8°C 81% 3.5 mph ESE5.6 kmh ESE 3.5 mph5.6 kmh 29.91 in1012.9 mb - 0.00 in0.0 mm 0.05 in1.3 mm
04:00 PM 53.4°F11.9°C 48.0°F8.9°C 82% 3.5 mph E5.6 kmh E 5.8 mph9.3 kmh 29.91 in1012.9 mb - 0.01 in0.3 mm 0.06 in1.5 mm
04:05 PM 53.2°F11.8°C 48.2°F9.0°C 83% 3.5 mph E5.6 kmh E 3.5 mph5.6 kmh 29.91 in1012.9 mb - 0.00 in0.0 mm 0.06 in1.5 mm
04:10 PM 53.2°F11.8°C 48.2°F9.0°C 83% 2.3 mph E3.7 kmh E 2.3 mph3.7 kmh 29.91 in1012.9 mb - 0.00 in0.0 mm 0.06 in1.5 mm
04:15 PM 53.1°F11.7°C 48.1°F8.9°C 83% 2.3 mph ESE3.7 kmh ESE 3.5 mph5.6 kmh 29.91 in1012.9 mb - 0.00 in0.0 mm 0.06 in1.5 mm
04:20 PM 53.1°F11.7°C 48.1°F8.9°C 83% 3.5 mph ESE5.6 kmh ESE 5.8 mph9.3 kmh 29.91 in1012.9 mb - 0.01 in0.3 mm 0.07 in1.8 mm
04:25 PM 53.2°F11.8°C 48.1°F8.9°C 83% 2.3 mph E3.7 kmh E 3.5 mph5.6 kmh 29.91 in1012.9 mb - 0.00 in0.0 mm 0.07 in1.8 mm
04:30 PM 53.2°F11.8°C 48.2°F9.0°C 83% 3.5 mph E5.6 kmh E 5.8 mph9.3 kmh 29.91 in1012.9 mb - 0.00 in0.0 mm 0.07 in1.8 mm
04:35 PM 53.1°F11.7°C 48.1°F8.9°C 83% 3.5 mph ESE5.6 kmh ESE 5.8 mph9.3 kmh 29.91 in1012.9 mb - 0.00 in0.0 mm 0.07 in1.8 mm
04:40 PM 53.1°F11.7°C 48.1°F8.9°C 83% 3.5 mph ESE5.6 kmh ESE 3.5 mph5.6 kmh 29.91 in1012.9 mb - 0.00 in0.0 mm 0.07 in1.8 mm
04:45 PM 53.1°F11.7°C 48.4°F9.1°C 84% 3.5 mph E5.6 kmh E 3.5 mph5.6 kmh 29.91 in1012.9 mb - 0.00 in0.0 mm 0.07 in1.8 mm
04:50 PM 53.1°F11.7°C 48.4°F9.1°C 84% 2.3 mph NE3.7 kmh NE 3.5 mph5.6 kmh 29.91 in1012.9 mb - 0.00 in0.0 mm 0.07 in1.8 mm
04:55 PM 53.0°F11.7°C 48.3°F9.1°C 84% 3.5 mph E5.6 kmh E 5.8 mph9.3 kmh 29.91 in1012.9 mb - 0.00 in0.0 mm 0.07 in1.8 mm
05:00 PM 52.9°F11.6°C 48.5°F9.2°C 85% 3.5 mph E5.6 kmh E 6.9 mph11.1 kmh 29.91 in1012.9 mb - 0.00 in0.0 mm 0.07 in1.8 mm
05:05 PM 52.8°F11.6°C 48.4°F9.1°C 85% 4.6 mph E7.4 kmh E 8.1 mph13.0 kmh 29.91 in1012.9 mb - 0.00 in0.0 mm 0.07 in1.8 mm
05:10 PM 52.8°F11.6°C 48.4°F9.1°C 85% 4.6 mph E7.4 kmh E 8.1 mph13.0 kmh 29.91 in1012.9 mb - 0.00 in0.0 mm 0.07 in1.8 mm
05:15 PM 52.9°F11.6°C 48.5°F9.2°C 85% 4.6 mph E7.4 kmh E 8.1 mph13.0 kmh 29.91 in1012.9 mb - 0.00 in0.0 mm 0.07 in1.8 mm
05:20 PM 53.1°F11.7°C 48.4°F9.1°C 84% 4.6 mph ESE7.4 kmh ESE 6.9 mph11.1 kmh 29.91 in1012.9 mb - 0.00 in0.0 mm 0.07 in1.8 mm
05:25 PM 53.3°F11.8°C 48.5°F9.2°C 84% 3.5 mph E5.6 kmh E 6.9 mph11.1 kmh 29.91 in1012.9 mb - 0.00 in0.0 mm 0.07 in1.8 mm
05:30 PM 53.4°F11.9°C 48.6°F9.2°C 84% 6.9 mph E11.1 kmh E 11.5 mph18.5 kmh 29.91 in1012.9 mb - 0.00 in0.0 mm 0.07 in1.8 mm
05:35 PM 53.6°F12.0°C 48.6°F9.2°C 83% 3.5 mph E5.6 kmh E 9.2 mph14.8 kmh 29.91 in1012.9 mb - 0.00 in0.0 mm 0.07 in1.8 mm
05:40 PM 53.7°F12.1°C 48.4°F9.1°C 82% 5.8 mph E9.3 kmh E 8.1 mph13.0 kmh 29.91 in1012.9 mb - 0.00 in0.0 mm 0.07 in1.8 mm
05:45 PM 53.8°F12.1°C 48.8°F9.3°C 83% 3.5 mph ESE5.6 kmh ESE 6.9 mph11.1 kmh 29.91 in1012.9 mb - 0.00 in0.0 mm 0.07 in1.8 mm
05:50 PM 53.8°F12.1°C 48.8°F9.3°C 83% 4.6 mph E7.4 kmh E 8.1 mph13.0 kmh 29.91 in1012.9 mb - 0.00 in0.0 mm 0.07 in1.8 mm
05:55 PM 53.9°F12.2°C 48.5°F9.2°C 82% 4.6 mph E7.4 kmh E 9.2 mph14.8 kmh 29.91 in1012.9 mb - 0.00 in0.0 mm 0.07 in1.8 mm
06:00 PM 53.9°F12.2°C 48.5°F9.2°C 82% 6.9 mph ESE11.1 kmh ESE 8.1 mph13.0 kmh 29.91 in1012.9 mb - 0.00 in0.0 mm 0.07 in1.8 mm
06:05 PM 54.0°F12.2°C 49.0°F9.4°C 83% 3.5 mph E5.6 kmh E 6.9 mph11.1 kmh 29.91 in1012.9 mb - 0.00 in0.0 mm 0.07 in1.8 mm
06:10 PM 53.9°F12.2°C 48.9°F9.4°C 83% 2.3 mph ESE3.7 kmh ESE 3.5 mph5.6 kmh 29.91 in1012.9 mb - 0.00 in0.0 mm 0.07 in1.8 mm
06:15 PM 53.9°F12.2°C 48.8°F9.3°C 83% 4.6 mph SE7.4 kmh SE 10.4 mph16.7 kmh 29.91 in1012.9 mb - 0.00 in0.0 mm 0.07 in1.8 mm
06:20 PM 53.7°F12.1°C 48.7°F9.3°C 83% 5.8 mph E9.3 kmh E 8.1 mph13.0 kmh 29.91 in1012.9 mb - 0.00 in0.0 mm 0.07 in1.8 mm
06:25 PM 53.7°F12.1°C 49.0°F9.4°C 84% 6.9 mph E11.1 kmh E 8.1 mph13.0 kmh 29.91 in1012.9 mb - 0.00 in0.0 mm 0.07 in1.8 mm
06:30 PM 53.8°F12.1°C 49.0°F9.4°C 84% 4.6 mph E7.4 kmh E 8.1 mph13.0 kmh 29.91 in1012.9 mb - 0.00 in0.0 mm 0.07 in1.8 mm
06:35 PM 53.9°F12.2°C 48.9°F9.4°C 83% 3.5 mph ESE5.6 kmh ESE 8.1 mph13.0 kmh 29.91 in1012.9 mb - 0.00 in0.0 mm 0.07 in1.8 mm
06:40 PM 54.0°F12.2°C 49.0°F9.4°C 83% 6.9 mph ESE11.1 kmh ESE 11.5 mph18.5 kmh 29.91 in1012.9 mb - 0.00 in0.0 mm 0.07 in1.8 mm
06:45 PM 54.2°F12.3°C 49.1°F9.5°C 83% 6.9 mph E11.1 kmh E 11.5 mph18.5 kmh 29.91 in1012.9 mb - 0.00 in0.0 mm 0.07 in1.8 mm
06:50 PM 54.4°F12.4°C 49.0°F9.4°C 82% 5.8 mph E9.3 kmh E 11.5 mph18.5 kmh 29.91 in1012.9 mb - 0.00 in0.0 mm 0.07 in1.8 mm
06:55 PM 54.5°F12.5°C 49.1°F9.5°C 82% 5.8 mph E9.3 kmh E 11.5 mph18.5 kmh 29.91 in1012.9 mb - 0.00 in0.0 mm 0.07 in1.8 mm
07:00 PM 54.5°F12.5°C 49.1°F9.5°C 82% 5.8 mph ESE9.3 kmh ESE 9.2 mph14.8 kmh 29.91 in1012.9 mb - 0.00 in0.0 mm 0.07 in1.8 mm
07:05 PM 54.6°F12.6°C 49.2°F9.6°C 82% 5.8 mph ESE9.3 kmh ESE 8.1 mph13.0 kmh 29.91 in1012.9 mb - 0.00 in0.0 mm 0.07 in1.8 mm
07:10 PM 54.7°F12.6°C 49.3°F9.6°C 82% 6.9 mph E11.1 kmh E 9.2 mph14.8 kmh 29.92 in1013.2 mb - 0.00 in0.0 mm 0.07 in1.8 mm
07:15 PM 54.8°F12.7°C 49.1°F9.5°C 81% 6.9 mph E11.1 kmh E 11.5 mph18.5 kmh 29.92 in1013.2 mb - 0.00 in0.0 mm 0.07 in1.8 mm
07:20 PM 54.8°F12.7°C 49.1°F9.5°C 81% 6.9 mph E11.1 kmh E 9.2 mph14.8 kmh 29.92 in1013.2 mb - 0.00 in0.0 mm 0.07 in1.8 mm
07:25 PM 54.8°F12.7°C 49.4°F9.7°C 82% 5.8 mph E9.3 kmh E 9.2 mph14.8 kmh 29.93 in1013.5 mb - 0.00 in0.0 mm 0.07 in1.8 mm
07:30 PM 54.8°F12.7°C 49.4°F9.7°C 82% 8.1 mph E13.0 kmh E 12.7 mph20.4 kmh 29.93 in1013.5 mb - 0.00 in0.0 mm 0.07 in1.8 mm
07:35 PM 54.8°F12.7°C 49.4°F9.7°C 82% 6.9 mph E11.1 kmh E 10.4 mph16.7 kmh 29.93 in1013.5 mb - 0.00 in0.0 mm 0.07 in1.8 mm
07:40 PM 54.9°F12.7°C 49.5°F9.7°C 82% 8.1 mph E13.0 kmh E 11.5 mph18.5 kmh 29.93 in1013.5 mb - 0.00 in0.0 mm 0.07 in1.8 mm
07:45 PM 54.9°F12.7°C 49.5°F9.7°C 82% 5.8 mph E9.3 kmh E 9.2 mph14.8 kmh 29.93 in1013.5 mb - 0.00 in0.0 mm 0.07 in1.8 mm
07:50 PM 54.9°F12.7°C 49.5°F9.7°C 82% 6.9 mph E11.1 kmh E 9.2 mph14.8 kmh 29.93 in1013.5 mb - 0.00 in0.0 mm 0.07 in1.8 mm
07:55 PM 55.0°F12.8°C 49.6°F9.8°C 82% 4.6 mph E7.4 kmh E 6.9 mph11.1 kmh 29.94 in1013.9 mb - 0.00 in0.0 mm 0.07 in1.8 mm
08:00 PM 54.9°F12.7°C 49.5°F9.7°C 82% 4.6 mph E7.4 kmh E 5.8 mph9.3 kmh 29.94 in1013.9 mb - 0.00 in0.0 mm 0.07 in1.8 mm
08:05 PM 54.9°F12.7°C 49.5°F9.7°C 82% 3.5 mph SE5.6 kmh SE 5.8 mph9.3 kmh 29.94 in1013.9 mb - 0.00 in0.0 mm 0.07 in1.8 mm
08:10 PM 54.9°F12.7°C 49.5°F9.7°C 82% 3.5 mph ESE5.6 kmh ESE 5.8 mph9.3 kmh 29.95 in1014.2 mb - 0.00 in0.0 mm 0.07 in1.8 mm
08:15 PM 54.8°F12.7°C 49.4°F9.7°C 82% 3.5 mph SE5.6 kmh SE 4.6 mph7.4 kmh 29.95 in1014.2 mb - 0.00 in0.0 mm 0.07 in1.8 mm
08:20 PM 54.6°F12.6°C 49.6°F9.8°C 83% 3.5 mph E5.6 kmh E 3.5 mph5.6 kmh 29.95 in1014.2 mb - 0.00 in0.0 mm 0.07 in1.8 mm
08:25 PM 54.6°F12.6°C 49.8°F9.9°C 84% 2.3 mph E3.7 kmh E 3.5 mph5.6 kmh 29.95 in1014.2 mb - 0.00 in0.0 mm 0.07 in1.8 mm
08:30 PM 54.4°F12.4°C 49.7°F9.8°C 84% 3.5 mph ENE5.6 kmh ENE 4.6 mph7.4 kmh 29.95 in1014.2 mb - 0.00 in0.0 mm 0.07 in1.8 mm
08:35 PM 54.3°F12.4°C 49.9°F9.9°C 85% 3.5 mph E5.6 kmh E 6.9 mph11.1 kmh 29.94 in1013.9 mb - 0.00 in0.0 mm 0.07 in1.8 mm
08:40 PM 54.3°F12.4°C 49.9°F9.9°C 85% 5.8 mph E9.3 kmh E 8.1 mph13.0 kmh 29.94 in1013.9 mb - 0.00 in0.0 mm 0.07 in1.8 mm
08:45 PM 54.4°F12.4°C 50.0°F10.0°C 85% 6.9 mph E11.1 kmh E 8.1 mph13.0 kmh 29.94 in1013.9 mb - 0.00 in0.0 mm 0.07 in1.8 mm
08:50 PM 54.5°F12.5°C 50.1°F10.1°C 85% 2.3 mph ENE3.7 kmh ENE 2.3 mph3.7 kmh 29.95 in1014.2 mb - 0.00 in0.0 mm 0.07 in1.8 mm
08:55 PM 54.5°F12.5°C 49.8°F9.9°C 84% 3.5 mph E5.6 kmh E 5.8 mph9.3 kmh 29.95 in1014.2 mb - 0.00 in0.0 mm 0.07 in1.8 mm
09:00 PM 54.6°F12.6°C 49.9°F9.9°C 84% 6.9 mph E11.1 kmh E 6.9 mph11.1 kmh 29.95 in1014.2 mb - 0.00 in0.0 mm 0.07 in1.8 mm
09:05 PM 54.7°F12.6°C 50.0°F10.0°C 84% 2.3 mph SE3.7 kmh SE 3.5 mph5.6 kmh 29.95 in1014.2 mb - 0.00 in0.0 mm 0.07 in1.8 mm
09:10 PM 54.8°F12.7°C 50.1°F10.1°C 84% 2.3 mph SE3.7 kmh SE 3.5 mph5.6 kmh 29.95 in1014.2 mb - 0.00 in0.0 mm 0.07 in1.8 mm
09:15 PM 54.8°F12.7°C 50.1°F10.1°C 84% 2.3 mph ESE3.7 kmh ESE 3.5 mph5.6 kmh 29.95 in1014.2 mb - 0.00 in0.0 mm 0.07 in1.8 mm
09:20 PM 54.8°F12.7°C 50.1°F10.1°C 84% 3.5 mph E5.6 kmh E 3.5 mph5.6 kmh 29.95 in1014.2 mb - 0.00 in0.0 mm 0.07 in1.8 mm
09:25 PM 54.8°F12.7°C 50.1°F10.1°C 84% 3.5 mph E5.6 kmh E 6.9 mph11.1 kmh 29.95 in1014.2 mb - 0.00 in0.0 mm 0.07 in1.8 mm
09:30 PM 54.7°F12.6°C 50.0°F10.0°C 84% 2.3 mph ESE3.7 kmh ESE 3.5 mph5.6 kmh 29.95 in1014.2 mb - 0.00 in0.0 mm 0.07 in1.8 mm
09:35 PM 54.6°F12.6°C 49.9°F9.9°C 84% 2.3 mph E3.7 kmh E 3.5 mph5.6 kmh 29.95 in1014.2 mb - 0.00 in0.0 mm 0.07 in1.8 mm
09:40 PM 54.5°F12.5°C 49.8°F9.9°C 84% 1.2 mph E1.9 kmh E 3.5 mph5.6 kmh 29.95 in1014.2 mb - 0.00 in0.0 mm 0.07 in1.8 mm
09:45 PM 54.5°F12.5°C 49.8°F9.9°C 84% 4.6 mph E7.4 kmh E 6.9 mph11.1 kmh 29.95 in1014.2 mb - 0.00 in0.0 mm 0.07 in1.8 mm
09:50 PM 54.5°F12.5°C 49.8°F9.9°C 84% 3.5 mph E5.6 kmh E 4.6 mph7.4 kmh 29.95 in1014.2 mb - 0.00 in0.0 mm 0.07 in1.8 mm
09:55 PM 54.5°F12.5°C 50.1°F10.1°C 85% 2.3 mph E3.7 kmh E 3.5 mph5.6 kmh 29.95 in1014.2 mb - 0.00 in0.0 mm 0.07 in1.8 mm
10:00 PM 54.4°F12.4°C 50.0°F10.0°C 85% 2.3 mph E3.7 kmh E 3.5 mph5.6 kmh 29.96 in1014.6 mb - 0.00 in0.0 mm 0.07 in1.8 mm
10:05 PM 54.4°F12.4°C 50.0°F10.0°C 85% 2.3 mph ESE3.7 kmh ESE 3.5 mph5.6 kmh 29.96 in1014.6 mb - 0.00 in0.0 mm 0.07 in1.8 mm
10:10 PM 54.4°F12.4°C 50.0°F10.0°C 85% 2.3 mph E3.7 kmh E 3.5 mph5.6 kmh 29.96 in1014.6 mb - 0.00 in0.0 mm 0.07 in1.8 mm
10:15 PM 54.4°F12.4°C 50.0°F10.0°C 85% 4.6 mph E7.4 kmh E 6.9 mph11.1 kmh 29.96 in1014.6 mb - 0.00 in0.0 mm 0.07 in1.8 mm
10:20 PM 54.4°F12.4°C 50.0°F10.0°C 85% 2.3 mph ESE3.7 kmh ESE 3.5 mph5.6 kmh 29.96 in1014.6 mb - 0.00 in0.0 mm 0.07 in1.8 mm
10:25 PM 54.5°F12.5°C 50.0°F10.0°C 85% 3.5 mph E5.6 kmh E 3.5 mph5.6 kmh 29.96 in1014.6 mb - 0.00 in0.0 mm 0.07 in1.8 mm
10:30 PM 54.5°F12.5°C 50.1°F10.1°C 85% 2.3 mph E3.7 kmh E 2.3 mph3.7 kmh 29.96 in1014.6 mb - 0.00 in0.0 mm 0.07 in1.8 mm
10:35 PM 54.4°F12.4°C 50.0°F10.0°C 85% 1.2 mph E1.9 kmh E 2.3 mph3.7 kmh 29.96 in1014.6 mb - 0.00 in0.0 mm 0.07 in1.8 mm
10:40 PM 54.4°F12.4°C 50.0°F10.0°C 85% 2.3 mph ESE3.7 kmh ESE 3.5 mph5.6 kmh 29.96 in1014.6 mb - 0.00 in0.0 mm 0.07 in1.8 mm
10:45 PM 54.2°F12.3°C 49.8°F9.9°C 85% 1.2 mph E1.9 kmh E 2.3 mph3.7 kmh 29.96 in1014.6 mb - 0.00 in0.0 mm 0.07 in1.8 mm
10:50 PM 54.1°F12.3°C 49.7°F9.8°C 85% Calm Calm -- 29.96 in1014.6 mb - 0.00 in0.0 mm 0.07 in1.8 mm
10:55 PM 53.8°F12.1°C 49.4°F9.7°C 85% 1.2 mph NE1.9 kmh NE 2.3 mph3.7 kmh 29.96 in1014.6 mb - 0.00 in0.0 mm 0.07 in1.8 mm
11:00 PM 53.5°F11.9°C 49.1°F9.5°C 85% Calm Calm -- 29.97 in1014.9 mb - 0.00 in0.0 mm 0.08 in2.0 mm
11:05 PM 53.1°F11.7°C 48.7°F9.3°C 85% Calm Calm -- 29.96 in1014.6 mb - 0.00 in0.0 mm 0.08 in2.0 mm
11:10 PM 52.8°F11.6°C 48.7°F9.3°C 86% Calm Calm 3.5 mph5.6 kmh 29.96 in1014.6 mb - 0.00 in0.0 mm 0.08 in2.0 mm
11:15 PM 52.5°F11.4°C 48.4°F9.1°C 86% 2.3 mph ENE3.7 kmh ENE 3.5 mph5.6 kmh 29.96 in1014.6 mb - 0.00 in0.0 mm 0.08 in2.0 mm
11:20 PM 52.3°F11.3°C 48.2°F9.0°C 86% 2.3 mph E3.7 kmh E 3.5 mph5.6 kmh 29.96 in1014.6 mb - 0.00 in0.0 mm 0.08 in2.0 mm
11:25 PM 52.1°F11.2°C 48.0°F8.9°C 86% Calm Calm -- 29.97 in1014.9 mb - 0.00 in0.0 mm 0.08 in2.0 mm
11:30 PM 51.7°F10.9°C 47.7°F8.7°C 86% Calm Calm -- 29.97 in1014.9 mb - 0.00 in0.0 mm 0.08 in2.0 mm
11:35 PM 51.6°F10.9°C 47.8°F8.8°C 87% Calm Calm 2.3 mph3.7 kmh 29.97 in1014.9 mb - 0.00 in0.0 mm 0.08 in2.0 mm
11:40 PM 51.4°F10.8°C 47.7°F8.7°C 87% 2.3 mph ENE3.7 kmh ENE 3.5 mph5.6 kmh 29.97 in1014.9 mb - 0.00 in0.0 mm 0.08 in2.0 mm
11:45 PM 51.4°F10.8°C 47.7°F8.7°C 87% 2.3 mph ENE3.7 kmh ENE 3.5 mph5.6 kmh 29.97 in1014.9 mb - 0.00 in0.0 mm 0.08 in2.0 mm
11:50 PM 51.3°F10.7°C 47.9°F8.8°C 88% 2.3 mph E3.7 kmh E 3.5 mph5.6 kmh 29.96 in1014.6 mb - 0.00 in0.0 mm 0.08 in2.0 mm
11:55 PM 51.2°F10.7°C 47.8°F8.8°C 88% 3.5 mph ENE5.6 kmh ENE 3.5 mph5.6 kmh 29.96 in1014.6 mb - 0.00 in0.0 mm 0.08 in2.0 mm